sensor_id;sensor_type;location;lat;lon;timestamp;P1;durP1;ratioP1;P2;durP2;ratioP2
57531;SDS011;43359;51.296;16.904;2022-10-17T00:00:34;116.95;;;107.72;;
57531;SDS011;43359;51.296;16.904;2022-10-17T00:03:00;104.40;;;96.22;;
57531;SDS011;43359;51.296;16.904;2022-10-17T00:05:26;120.25;;;111.30;;
57531;SDS011;43359;51.296;16.904;2022-10-17T00:07:52;109.90;;;102.53;;
57531;SDS011;43359;51.296;16.904;2022-10-17T00:10:20;110.90;;;102.93;;
57531;SDS011;43359;51.296;16.904;2022-10-17T00:12:47;108.90;;;101.18;;
57531;SDS011;43359;51.296;16.904;2022-10-17T00:15:14;109.78;;;102.07;;
57531;SDS011;43359;51.296;16.904;2022-10-17T00:17:41;113.68;;;105.68;;
57531;SDS011;43359;51.296;16.904;2022-10-17T00:20:07;104.03;;;96.90;;
57531;SDS011;43359;51.296;16.904;2022-10-17T00:22:33;102.40;;;95.22;;
57531;SDS011;43359;51.296;16.904;2022-10-17T00:25:00;121.50;;;113.10;;
57531;SDS011;43359;51.296;16.904;2022-10-17T00:27:26;117.93;;;109.72;;
57531;SDS011;43359;51.296;16.904;2022-10-17T00:29:52;114.65;;;106.85;;
57531;SDS011;43359;51.296;16.904;2022-10-17T00:32:18;112.45;;;104.28;;
57531;SDS011;43359;51.296;16.904;2022-10-17T00:34:44;115.68;;;108.15;;
57531;SDS011;43359;51.296;16.904;2022-10-17T00:37:10;116.15;;;108.78;;
57531;SDS011;43359;51.296;16.904;2022-10-17T00:39:37;120.45;;;112.47;;
57531;SDS011;43359;51.296;16.904;2022-10-17T00:42:03;114.70;;;106.68;;
57531;SDS011;43359;51.296;16.904;2022-10-17T00:47:01;132.73;;;124.03;;
57531;SDS011;43359;51.296;16.904;2022-10-17T00:49:31;118.90;;;111.05;;
57531;SDS011;43359;51.296;16.904;2022-10-17T00:52:02;120.43;;;112.72;;
57531;SDS011;43359;51.296;16.904;2022-10-17T00:54:32;111.18;;;103.53;;
57531;SDS011;43359;51.296;16.904;2022-10-17T00:56:58;121.78;;;112.95;;
57531;SDS011;43359;51.296;16.904;2022-10-17T00:59:25;132.23;;;123.28;;
57531;SDS011;43359;51.296;16.904;2022-10-17T01:02:03;120.57;;;111.78;;
57531;SDS011;43359;51.296;16.904;2022-10-17T01:04:29;125.18;;;115.97;;
57531;SDS011;43359;51.296;16.904;2022-10-17T01:06:55;119.45;;;111.05;;
57531;SDS011;43359;51.296;16.904;2022-10-17T01:09:21;120.75;;;112.13;;
57531;SDS011;43359;51.296;16.904;2022-10-17T01:16:44;110.70;;;102.70;;
57531;SDS011;43359;51.296;16.904;2022-10-17T01:19:34;122.22;;;113.97;;
57531;SDS011;43359;51.296;16.904;2022-10-17T01:32:47;117.80;;;109.88;;
57531;SDS011;43359;51.296;16.904;2022-10-17T01:37:47;115.65;;;107.97;;
57531;SDS011;43359;51.296;16.904;2022-10-17T01:40:35;119.60;;;111.80;;
57531;SDS011;43359;51.296;16.904;2022-10-17T01:43:04;106.95;;;99.28;;
57531;SDS011;43359;51.296;16.904;2022-10-17T01:45:33;122.13;;;114.05;;
57531;SDS011;43359;51.296;16.904;2022-10-17T01:48:05;122.63;;;115.10;;
57531;SDS011;43359;51.296;16.904;2022-10-17T01:50:34;123.28;;;115.30;;
57531;SDS011;43359;51.296;16.904;2022-10-17T01:53:04;115.30;;;107.88;;
57531;SDS011;43359;51.296;16.904;2022-10-17T01:55:34;124.80;;;117.20;;
57531;SDS011;43359;51.296;16.904;2022-10-17T01:58:02;113.15;;;105.55;;
57531;SDS011;43359;51.296;16.904;2022-10-17T02:00:30;113.80;;;106.40;;
57531;SDS011;43359;51.296;16.904;2022-10-17T02:03:03;104.80;;;97.72;;
57531;SDS011;43359;51.296;16.904;2022-10-17T02:05:31;107.38;;;99.45;;
57531;SDS011;43359;51.296;16.904;2022-10-17T02:07:58;105.35;;;98.05;;
57531;SDS011;43359;51.296;16.904;2022-10-17T02:10:30;110.35;;;103.32;;
57531;SDS011;43359;51.296;16.904;2022-10-17T02:13:03;102.55;;;95.75;;
57531;SDS011;43359;51.296;16.904;2022-10-17T02:20:56;106.30;;;98.78;;
57531;SDS011;43359;51.296;16.904;2022-10-17T02:23:40;100.05;;;92.30;;
57531;SDS011;43359;51.296;16.904;2022-10-17T02:26:15;105.78;;;97.82;;
57531;SDS011;43359;51.296;16.904;2022-10-17T02:29:06;110.32;;;102.00;;
57531;SDS011;43359;51.296;16.904;2022-10-17T02:31:36;118.10;;;109.85;;
57531;SDS011;43359;51.296;16.904;2022-10-17T02:34:04;118.18;;;108.75;;
57531;SDS011;43359;51.296;16.904;2022-10-17T02:36:34;123.60;;;114.72;;
57531;SDS011;43359;51.296;16.904;2022-10-17T02:39:02;118.53;;;109.93;;
57531;SDS011;43359;51.296;16.904;2022-10-17T02:41:29;112.72;;;103.88;;
57531;SDS011;43359;51.296;16.904;2022-10-17T02:43:56;110.68;;;101.68;;
57531;SDS011;43359;51.296;16.904;2022-10-17T02:46:22;115.35;;;106.97;;
57531;SDS011;43359;51.296;16.904;2022-10-17T02:48:53;112.53;;;104.53;;
57531;SDS011;43359;51.296;16.904;2022-10-17T02:53:53;122.72;;;113.97;;
57531;SDS011;43359;51.296;16.904;2022-10-17T02:56:20;121.38;;;112.95;;
57531;SDS011;43359;51.296;16.904;2022-10-17T02:58:50;118.65;;;110.38;;
57531;SDS011;43359;51.296;16.904;2022-10-17T03:01:18;104.43;;;96.35;;
57531;SDS011;43359;51.296;16.904;2022-10-17T03:03:44;109.43;;;100.88;;
57531;SDS011;43359;51.296;16.904;2022-10-17T03:06:10;101.28;;;93.53;;
57531;SDS011;43359;51.296;16.904;2022-10-17T03:08:37;101.95;;;94.15;;
57531;SDS011;43359;51.296;16.904;2022-10-17T03:11:03;116.28;;;108.20;;
57531;SDS011;43359;51.296;16.904;2022-10-17T03:13:29;110.63;;;102.13;;
57531;SDS011;43359;51.296;16.904;2022-10-17T03:15:56;110.53;;;102.13;;
57531;SDS011;43359;51.296;16.904;2022-10-17T03:18:22;113.65;;;104.93;;
57531;SDS011;43359;51.296;16.904;2022-10-17T03:20:48;120.53;;;112.07;;
57531;SDS011;43359;51.296;16.904;2022-10-17T03:23:15;109.20;;;101.40;;
57531;SDS011;43359;51.296;16.904;2022-10-17T03:25:41;100.80;;;93.30;;
57531;SDS011;43359;51.296;16.904;2022-10-17T03:28:08;102.13;;;94.13;;
57531;SDS011;43359;51.296;16.904;2022-10-17T03:30:34;105.72;;;97.18;;
57531;SDS011;43359;51.296;16.904;2022-10-17T03:33:03;87.30;;;80.10;;
57531;SDS011;43359;51.296;16.904;2022-10-17T03:35:29;90.22;;;82.50;;
57531;SDS011;43359;51.296;16.904;2022-10-17T03:37:55;99.45;;;92.20;;
57531;SDS011;43359;51.296;16.904;2022-10-17T03:40:22;93.60;;;85.65;;
57531;SDS011;43359;51.296;16.904;2022-10-17T03:42:48;82.20;;;74.97;;
57531;SDS011;43359;51.296;16.904;2022-10-17T03:45:14;78.70;;;71.40;;
57531;SDS011;43359;51.296;16.904;2022-10-17T03:47:40;102.43;;;94.78;;
57531;SDS011;43359;51.296;16.904;2022-10-17T03:50:06;108.20;;;99.60;;
57531;SDS011;43359;51.296;16.904;2022-10-17T03:52:32;81.53;;;74.38;;
57531;SDS011;43359;51.296;16.904;2022-10-17T03:54:59;81.45;;;74.25;;
57531;SDS011;43359;51.296;16.904;2022-10-17T03:57:25;90.18;;;82.28;;
57531;SDS011;43359;51.296;16.904;2022-10-17T03:59:51;104.13;;;95.68;;
57531;SDS011;43359;51.296;16.904;2022-10-17T04:02:17;90.80;;;83.05;;
57531;SDS011;43359;51.296;16.904;2022-10-17T04:04:46;91.10;;;83.35;;
57531;SDS011;43359;51.296;16.904;2022-10-17T04:07:12;81.70;;;74.75;;
57531;SDS011;43359;51.296;16.904;2022-10-17T04:09:38;78.47;;;71.20;;
57531;SDS011;43359;51.296;16.904;2022-10-17T04:12:05;84.63;;;76.57;;
57531;SDS011;43359;51.296;16.904;2022-10-17T04:14:34;77.53;;;70.88;;
57531;SDS011;43359;51.296;16.904;2022-10-17T04:17:03;73.00;;;66.05;;
57531;SDS011;43359;51.296;16.904;2022-10-17T04:19:29;81.20;;;74.35;;
57531;SDS011;43359;51.296;16.904;2022-10-17T04:21:55;77.43;;;70.53;;
57531;SDS011;43359;51.296;16.904;2022-10-17T04:24:21;80.97;;;74.15;;
57531;SDS011;43359;51.296;16.904;2022-10-17T04:26:48;88.97;;;81.63;;
57531;SDS011;43359;51.296;16.904;2022-10-17T04:29:15;101.80;;;93.75;;
57531;SDS011;43359;51.296;16.904;2022-10-17T04:31:41;82.75;;;75.40;;
57531;SDS011;43359;51.296;16.904;2022-10-17T04:34:07;101.28;;;93.25;;
57531;SDS011;43359;51.296;16.904;2022-10-17T04:36:33;103.78;;;95.47;;
57531;SDS011;43359;51.296;16.904;2022-10-17T04:38:59;101.97;;;94.25;;
57531;SDS011;43359;51.296;16.904;2022-10-17T04:41:27;111.63;;;103.18;;
57531;SDS011;43359;51.296;16.904;2022-10-17T04:43:53;104.03;;;95.85;;
57531;SDS011;43359;51.296;16.904;2022-10-17T04:46:19;110.50;;;102.40;;
57531;SDS011;43359;51.296;16.904;2022-10-17T04:48:48;102.88;;;94.38;;
57531;SDS011;43359;51.296;16.904;2022-10-17T04:51:25;79.28;;;71.80;;
57531;SDS011;43359;51.296;16.904;2022-10-17T04:53:51;78.15;;;70.00;;
57531;SDS011;43359;51.296;16.904;2022-10-17T04:56:18;76.00;;;68.45;;
57531;SDS011;43359;51.296;16.904;2022-10-17T04:58:45;79.35;;;71.75;;
57531;SDS011;43359;51.296;16.904;2022-10-17T05:01:19;95.30;;;86.63;;
57531;SDS011;43359;51.296;16.904;2022-10-17T05:03:45;106.03;;;97.55;;
57531;SDS011;43359;51.296;16.904;2022-10-17T05:06:12;94.72;;;86.47;;
57531;SDS011;43359;51.296;16.904;2022-10-17T05:08:39;87.28;;;78.68;;
57531;SDS011;43359;51.296;16.904;2022-10-17T05:11:12;98.90;;;90.22;;
57531;SDS011;43359;51.296;16.904;2022-10-17T05:13:39;97.70;;;88.82;;
57531;SDS011;43359;51.296;16.904;2022-10-17T05:16:06;108.57;;;99.50;;
57531;SDS011;43359;51.296;16.904;2022-10-17T05:18:32;101.72;;;92.28;;
57531;SDS011;43359;51.296;16.904;2022-10-17T05:20:58;84.78;;;76.20;;
57531;SDS011;43359;51.296;16.904;2022-10-17T05:23:25;85.13;;;76.55;;
57531;SDS011;43359;51.296;16.904;2022-10-17T05:25:53;96.30;;;87.50;;
57531;SDS011;43359;51.296;16.904;2022-10-17T05:28:19;90.25;;;81.40;;
57531;SDS011;43359;51.296;16.904;2022-10-17T05:30:46;96.05;;;87.10;;
57531;SDS011;43359;51.296;16.904;2022-10-17T05:33:12;92.10;;;83.22;;
57531;SDS011;43359;51.296;16.904;2022-10-17T05:35:38;93.68;;;84.88;;
57531;SDS011;43359;51.296;16.904;2022-10-17T05:38:04;84.70;;;76.65;;
57531;SDS011;43359;51.296;16.904;2022-10-17T05:40:32;94.25;;;85.47;;
57531;SDS011;43359;51.296;16.904;2022-10-17T05:42:58;87.07;;;78.57;;
57531;SDS011;43359;51.296;16.904;2022-10-17T05:45:25;81.10;;;73.03;;
57531;SDS011;43359;51.296;16.904;2022-10-17T05:47:51;81.10;;;72.65;;
57531;SDS011;43359;51.296;16.904;2022-10-17T05:50:17;88.18;;;79.88;;
57531;SDS011;43359;51.296;16.904;2022-10-17T05:52:49;84.75;;;76.70;;
57531;SDS011;43359;51.296;16.904;2022-10-17T05:55:17;92.63;;;84.05;;
57531;SDS011;43359;51.296;16.904;2022-10-17T05:57:43;95.93;;;87.65;;
57531;SDS011;43359;51.296;16.904;2022-10-17T06:00:10;103.63;;;95.25;;
57531;SDS011;43359;51.296;16.904;2022-10-17T06:02:39;112.50;;;103.32;;
57531;SDS011;43359;51.296;16.904;2022-10-17T06:05:05;116.50;;;108.47;;
57531;SDS011;43359;51.296;16.904;2022-10-17T06:07:32;109.47;;;100.95;;
57531;SDS011;43359;51.296;16.904;2022-10-17T06:09:58;97.63;;;90.05;;
57531;SDS011;43359;51.296;16.904;2022-10-17T06:12:24;110.18;;;102.10;;
57531;SDS011;43359;51.296;16.904;2022-10-17T06:14:50;108.35;;;100.60;;
57531;SDS011;43359;51.296;16.904;2022-10-17T06:17:17;96.97;;;89.50;;
57531;SDS011;43359;51.296;16.904;2022-10-17T06:19:43;86.90;;;80.25;;
57531;SDS011;43359;51.296;16.904;2022-10-17T06:22:09;95.75;;;88.18;;
57531;SDS011;43359;51.296;16.904;2022-10-17T06:24:35;90.47;;;83.28;;
57531;SDS011;43359;51.296;16.904;2022-10-17T06:27:05;91.38;;;84.35;;
57531;SDS011;43359;51.296;16.904;2022-10-17T06:29:31;90.97;;;84.28;;
57531;SDS011;43359;51.296;16.904;2022-10-17T06:31:57;106.45;;;99.25;;
57531;SDS011;43359;51.296;16.904;2022-10-17T06:37:17;87.95;;;81.75;;
57531;SDS011;43359;51.296;16.904;2022-10-17T06:39:43;89.70;;;83.53;;
57531;SDS011;43359;51.296;16.904;2022-10-17T06:42:09;88.60;;;82.18;;
57531;SDS011;43359;51.296;16.904;2022-10-17T06:44:35;75.30;;;69.60;;
57531;SDS011;43359;51.296;16.904;2022-10-17T06:47:01;83.38;;;77.18;;
57531;SDS011;43359;51.296;16.904;2022-10-17T06:49:27;81.35;;;75.40;;
57531;SDS011;43359;51.296;16.904;2022-10-17T06:51:53;94.00;;;87.78;;
57531;SDS011;43359;51.296;16.904;2022-10-17T06:54:20;89.50;;;83.32;;
57531;SDS011;43359;51.296;16.904;2022-10-17T06:56:46;85.50;;;79.60;;
57531;SDS011;43359;51.296;16.904;2022-10-17T06:59:12;97.45;;;91.50;;
57531;SDS011;43359;51.296;16.904;2022-10-17T07:01:39;105.35;;;98.93;;
57531;SDS011;43359;51.296;16.904;2022-10-17T07:04:05;105.38;;;99.50;;
57531;SDS011;43359;51.296;16.904;2022-10-17T07:06:31;109.47;;;102.82;;
57531;SDS011;43359;51.296;16.904;2022-10-17T07:08:58;110.75;;;103.95;;
57531;SDS011;43359;51.296;16.904;2022-10-17T07:11:26;109.38;;;102.88;;
57531;SDS011;43359;51.296;16.904;2022-10-17T07:13:52;100.50;;;94.38;;
57531;SDS011;43359;51.296;16.904;2022-10-17T07:16:18;97.15;;;91.18;;
57531;SDS011;43359;51.296;16.904;2022-10-17T07:18:47;92.65;;;87.03;;
57531;SDS011;43359;51.296;16.904;2022-10-17T07:21:13;90.82;;;84.80;;
57531;SDS011;43359;51.296;16.904;2022-10-17T07:23:39;102.32;;;95.75;;
57531;SDS011;43359;51.296;16.904;2022-10-17T07:26:07;97.82;;;91.30;;
57531;SDS011;43359;51.296;16.904;2022-10-17T07:28:34;90.07;;;84.40;;
57531;SDS011;43359;51.296;16.904;2022-10-17T07:31:04;95.57;;;89.55;;
57531;SDS011;43359;51.296;16.904;2022-10-17T07:33:30;101.32;;;94.93;;
57531;SDS011;43359;51.296;16.904;2022-10-17T07:36:00;104.22;;;97.80;;
57531;SDS011;43359;51.296;16.904;2022-10-17T07:38:26;111.22;;;104.78;;
57531;SDS011;43359;51.296;16.904;2022-10-17T07:40:53;107.60;;;100.97;;
57531;SDS011;43359;51.296;16.904;2022-10-17T07:43:19;110.65;;;103.68;;
57531;SDS011;43359;51.296;16.904;2022-10-17T07:45:45;108.95;;;102.38;;
57531;SDS011;43359;51.296;16.904;2022-10-17T07:48:11;117.22;;;110.38;;
57531;SDS011;43359;51.296;16.904;2022-10-17T07:50:38;103.43;;;97.03;;
57531;SDS011;43359;51.296;16.904;2022-10-17T07:53:04;104.47;;;98.18;;
57531;SDS011;43359;51.296;16.904;2022-10-17T07:55:30;109.63;;;102.75;;
57531;SDS011;43359;51.296;16.904;2022-10-17T07:57:56;106.82;;;100.60;;
57531;SDS011;43359;51.296;16.904;2022-10-17T08:00:24;123.57;;;116.18;;
57531;SDS011;43359;51.296;16.904;2022-10-17T08:02:50;120.55;;;113.47;;
57531;SDS011;43359;51.296;16.904;2022-10-17T08:05:16;129.48;;;121.60;;
57531;SDS011;43359;51.296;16.904;2022-10-17T08:07:43;108.65;;;102.07;;
57531;SDS011;43359;51.296;16.904;2022-10-17T08:10:10;104.50;;;98.00;;
57531;SDS011;43359;51.296;16.904;2022-10-17T08:12:36;103.20;;;97.03;;
57531;SDS011;43359;51.296;16.904;2022-10-17T08:15:03;103.72;;;97.43;;
57531;SDS011;43359;51.296;16.904;2022-10-17T08:17:29;105.75;;;99.18;;
57531;SDS011;43359;51.296;16.904;2022-10-17T08:19:55;109.43;;;102.57;;
57531;SDS011;43359;51.296;16.904;2022-10-17T08:22:21;102.70;;;96.50;;
57531;SDS011;43359;51.296;16.904;2022-10-17T08:24:47;101.60;;;95.00;;
57531;SDS011;43359;51.296;16.904;2022-10-17T08:27:13;109.57;;;103.00;;
57531;SDS011;43359;51.296;16.904;2022-10-17T08:29:45;98.82;;;93.03;;
57531;SDS011;43359;51.296;16.904;2022-10-17T08:32:12;94.70;;;88.93;;
57531;SDS011;43359;51.296;16.904;2022-10-17T08:34:38;83.93;;;78.75;;
57531;SDS011;43359;51.296;16.904;2022-10-17T08:37:05;102.95;;;97.00;;
57531;SDS011;43359;51.296;16.904;2022-10-17T08:39:31;115.90;;;109.30;;
57531;SDS011;43359;51.296;16.904;2022-10-17T08:44:32;124.82;;;117.50;;
57531;SDS011;43359;51.296;16.904;2022-10-17T08:47:01;122.80;;;115.50;;
57531;SDS011;43359;51.296;16.904;2022-10-17T08:50:03;123.78;;;116.50;;
57531;SDS011;43359;51.296;16.904;2022-10-17T08:52:25;104.32;;;98.45;;
57531;SDS011;43359;51.296;16.904;2022-10-17T08:54:54;109.50;;;103.30;;
57531;SDS011;43359;51.296;16.904;2022-10-17T08:57:20;124.40;;;116.88;;
57531;SDS011;43359;51.296;16.904;2022-10-17T08:59:50;130.02;;;122.72;;
57531;SDS011;43359;51.296;16.904;2022-10-17T09:02:32;119.78;;;112.95;;
57531;SDS011;43359;51.296;16.904;2022-10-17T09:05:05;131.77;;;125.00;;
57531;SDS011;43359;51.296;16.904;2022-10-17T09:10:09;114.97;;;108.13;;
57531;SDS011;43359;51.296;16.904;2022-10-17T09:12:58;113.30;;;106.90;;
57531;SDS011;43359;51.296;16.904;2022-10-17T09:20:24;88.72;;;83.47;;
57531;SDS011;43359;51.296;16.904;2022-10-17T09:22:56;94.60;;;89.13;;
57531;SDS011;43359;51.296;16.904;2022-10-17T09:25:23;87.65;;;82.63;;
57531;SDS011;43359;51.296;16.904;2022-10-17T09:28:03;91.20;;;86.18;;
57531;SDS011;43359;51.296;16.904;2022-10-17T09:30:33;86.07;;;80.88;;
57531;SDS011;43359;51.296;16.904;2022-10-17T09:33:00;99.43;;;93.82;;
57531;SDS011;43359;51.296;16.904;2022-10-17T09:35:31;103.38;;;97.80;;
57531;SDS011;43359;51.296;16.904;2022-10-17T09:37:57;99.57;;;93.68;;
57531;SDS011;43359;51.296;16.904;2022-10-17T09:40:24;98.60;;;93.22;;
57531;SDS011;43359;51.296;16.904;2022-10-17T09:42:51;98.57;;;93.20;;
57531;SDS011;43359;51.296;16.904;2022-10-17T09:45:20;92.25;;;87.45;;
57531;SDS011;43359;51.296;16.904;2022-10-17T09:47:59;94.82;;;89.72;;
57531;SDS011;43359;51.296;16.904;2022-10-17T09:50:28;95.80;;;90.70;;
57531;SDS011;43359;51.296;16.904;2022-10-17T09:52:55;99.15;;;94.00;;
57531;SDS011;43359;51.296;16.904;2022-10-17T09:55:44;108.20;;;102.50;;
57531;SDS011;43359;51.296;16.904;2022-10-17T09:58:12;93.35;;;88.15;;
57531;SDS011;43359;51.296;16.904;2022-10-17T10:00:45;99.97;;;94.68;;
57531;SDS011;43359;51.296;16.904;2022-10-17T10:05:42;93.53;;;88.78;;
57531;SDS011;43359;51.296;16.904;2022-10-17T10:08:13;93.15;;;88.25;;
57531;SDS011;43359;51.296;16.904;2022-10-17T10:10:40;93.03;;;88.22;;
57531;SDS011;43359;51.296;16.904;2022-10-17T10:15:40;92.20;;;87.20;;
57531;SDS011;43359;51.296;16.904;2022-10-17T10:18:25;90.88;;;85.68;;
57531;SDS011;43359;51.296;16.904;2022-10-17T10:21:12;98.30;;;93.15;;
57531;SDS011;43359;51.296;16.904;2022-10-17T10:23:42;93.47;;;88.25;;
57531;SDS011;43359;51.296;16.904;2022-10-17T10:26:29;91.47;;;86.57;;
57531;SDS011;43359;51.296;16.904;2022-10-17T10:28:56;97.57;;;92.68;;
57531;SDS011;43359;51.296;16.904;2022-10-17T10:31:32;87.00;;;82.28;;
57531;SDS011;43359;51.296;16.904;2022-10-17T10:33:59;110.25;;;104.05;;
57531;SDS011;43359;51.296;16.904;2022-10-17T10:36:40;109.65;;;103.50;;
57531;SDS011;43359;51.296;16.904;2022-10-17T10:39:07;111.70;;;106.07;;
57531;SDS011;43359;51.296;16.904;2022-10-17T10:41:46;106.25;;;100.15;;
57531;SDS011;43359;51.296;16.904;2022-10-17T10:44:13;108.50;;;102.30;;
57531;SDS011;43359;51.296;16.904;2022-10-17T10:46:40;110.45;;;104.22;;
57531;SDS011;43359;51.296;16.904;2022-10-17T10:49:06;101.57;;;96.05;;
57531;SDS011;43359;51.296;16.904;2022-10-17T10:51:52;107.35;;;101.32;;
57531;SDS011;43359;51.296;16.904;2022-10-17T10:54:23;106.82;;;100.82;;
57531;SDS011;43359;51.296;16.904;2022-10-17T10:56:51;106.22;;;100.43;;
57531;SDS011;43359;51.296;16.904;2022-10-17T11:04:45;117.38;;;111.50;;
57531;SDS011;43359;51.296;16.904;2022-10-17T11:07:19;107.03;;;101.50;;
57531;SDS011;43359;51.296;16.904;2022-10-17T11:09:53;91.97;;;87.28;;
57531;SDS011;43359;51.296;16.904;2022-10-17T11:15:17;102.07;;;96.57;;
57531;SDS011;43359;51.296;16.904;2022-10-17T11:17:56;90.70;;;85.85;;
57531;SDS011;43359;51.296;16.904;2022-10-17T11:20:28;90.88;;;86.18;;
57531;SDS011;43359;51.296;16.904;2022-10-17T11:25:36;88.47;;;83.93;;
57531;SDS011;43359;51.296;16.904;2022-10-17T11:28:03;86.35;;;81.90;;
57531;SDS011;43359;51.296;16.904;2022-10-17T11:30:38;83.18;;;78.90;;
57531;SDS011;43359;51.296;16.904;2022-10-17T11:33:05;93.40;;;88.45;;
57531;SDS011;43359;51.296;16.904;2022-10-17T11:35:40;90.25;;;85.70;;
57531;SDS011;43359;51.296;16.904;2022-10-17T11:40:35;85.75;;;81.20;;
57531;SDS011;43359;51.296;16.904;2022-10-17T11:45:47;80.00;;;75.25;;
57531;SDS011;43359;51.296;16.904;2022-10-17T11:48:16;81.38;;;76.88;;
57531;SDS011;43359;51.296;16.904;2022-10-17T11:50:47;87.07;;;82.07;;
57531;SDS011;43359;51.296;16.904;2022-10-17T11:55:43;83.78;;;79.57;;
57531;SDS011;43359;51.296;16.904;2022-10-17T11:58:17;90.20;;;85.60;;
57531;SDS011;43359;51.296;16.904;2022-10-17T12:13:46;113.78;;;108.47;;
57531;SDS011;43359;51.296;16.904;2022-10-17T12:18:45;111.78;;;106.40;;
57531;SDS011;43359;51.296;16.904;2022-10-17T12:24:23;111.18;;;106.07;;
57531;SDS011;43359;51.296;16.904;2022-10-17T12:26:52;114.00;;;108.90;;
57531;SDS011;43359;51.296;16.904;2022-10-17T12:29:24;102.57;;;97.78;;
57531;SDS011;43359;51.296;16.904;2022-10-17T12:31:51;98.82;;;94.25;;
57531;SDS011;43359;51.296;16.904;2022-10-17T12:34:17;100.38;;;95.10;;
57531;SDS011;43359;51.296;16.904;2022-10-17T12:36:44;94.13;;;89.38;;
57531;SDS011;43359;51.296;16.904;2022-10-17T12:46:43;106.05;;;100.72;;
57531;SDS011;43359;51.296;16.904;2022-10-17T12:54:58;108.80;;;103.70;;
57531;SDS011;43359;51.296;16.904;2022-10-17T13:00:30;111.75;;;106.30;;
57531;SDS011;43359;51.296;16.904;2022-10-17T13:03:31;104.85;;;99.95;;
57531;SDS011;43359;51.296;16.904;2022-10-17T13:05:51;103.68;;;98.78;;
57531;SDS011;43359;51.296;16.904;2022-10-17T13:08:20;95.05;;;90.45;;
57531;SDS011;43359;51.296;16.904;2022-10-17T13:10:48;95.13;;;90.65;;
57531;SDS011;43359;51.296;16.904;2022-10-17T13:13:22;100.90;;;95.90;;
57531;SDS011;43359;51.296;16.904;2022-10-17T13:15:51;105.63;;;100.07;;
57531;SDS011;43359;51.296;16.904;2022-10-17T13:18:19;92.22;;;87.82;;
57531;SDS011;43359;51.296;16.904;2022-10-17T13:23:31;91.10;;;86.30;;
57531;SDS011;43359;51.296;16.904;2022-10-17T13:26:02;80.22;;;76.22;;
57531;SDS011;43359;51.296;16.904;2022-10-17T13:28:28;91.60;;;86.88;;
57531;SDS011;43359;51.296;16.904;2022-10-17T13:30:55;89.00;;;84.25;;
57531;SDS011;43359;51.296;16.904;2022-10-17T13:33:31;86.30;;;82.35;;
57531;SDS011;43359;51.296;16.904;2022-10-17T13:35:58;89.15;;;84.88;;
57531;SDS011;43359;51.296;16.904;2022-10-17T13:38:28;81.32;;;77.32;;
57531;SDS011;43359;51.296;16.904;2022-10-17T13:40:59;90.72;;;86.22;;
57531;SDS011;43359;51.296;16.904;2022-10-17T13:43:25;90.90;;;86.13;;
57531;SDS011;43359;51.296;16.904;2022-10-17T13:45:55;79.35;;;75.40;;
57531;SDS011;43359;51.296;16.904;2022-10-17T13:48:25;80.40;;;76.35;;
57531;SDS011;43359;51.296;16.904;2022-10-17T13:50:56;80.45;;;76.35;;
57531;SDS011;43359;51.296;16.904;2022-10-17T13:58:24;83.47;;;79.40;;
57531;SDS011;43359;51.296;16.904;2022-10-17T14:00:51;79.95;;;76.18;;
57531;SDS011;43359;51.296;16.904;2022-10-17T14:03:18;83.40;;;79.35;;
57531;SDS011;43359;51.296;16.904;2022-10-17T14:08:37;87.55;;;83.35;;
57531;SDS011;43359;51.296;16.904;2022-10-17T14:11:23;87.70;;;83.60;;
57531;SDS011;43359;51.296;16.904;2022-10-17T14:13:51;62.75;;;59.50;;
57531;SDS011;43359;51.296;16.904;2022-10-17T14:16:17;78.75;;;74.97;;
57531;SDS011;43359;51.296;16.904;2022-10-17T14:18:45;81.97;;;78.15;;
57531;SDS011;43359;51.296;16.904;2022-10-17T14:21:23;78.35;;;74.85;;
57531;SDS011;43359;51.296;16.904;2022-10-17T14:24:10;69.65;;;66.00;;
57531;SDS011;43359;51.296;16.904;2022-10-17T14:26:45;77.13;;;73.25;;
57531;SDS011;43359;51.296;16.904;2022-10-17T14:29:22;73.23;;;69.63;;
57531;SDS011;43359;51.296;16.904;2022-10-17T14:31:49;72.82;;;69.13;;
57531;SDS011;43359;51.296;16.904;2022-10-17T14:34:28;80.68;;;76.55;;
57531;SDS011;43359;51.296;16.904;2022-10-17T14:36:55;93.90;;;89.25;;
57531;SDS011;43359;51.296;16.904;2022-10-17T14:39:22;86.90;;;82.82;;
57531;SDS011;43359;51.296;16.904;2022-10-17T14:41:48;87.40;;;83.28;;
57531;SDS011;43359;51.296;16.904;2022-10-17T14:44:19;94.13;;;89.78;;
57531;SDS011;43359;51.296;16.904;2022-10-17T14:46:46;89.10;;;84.88;;
57531;SDS011;43359;51.296;16.904;2022-10-17T14:49:20;93.05;;;88.45;;
57531;SDS011;43359;51.296;16.904;2022-10-17T14:54:33;90.65;;;86.32;;
57531;SDS011;43359;51.296;16.904;2022-10-17T14:57:23;90.80;;;86.47;;
57531;SDS011;43359;51.296;16.904;2022-10-17T14:59:50;87.18;;;82.78;;
57531;SDS011;43359;51.296;16.904;2022-10-17T15:02:16;93.50;;;88.70;;
57531;SDS011;43359;51.296;16.904;2022-10-17T15:04:42;143.38;;;137.15;;
57531;SDS011;43359;51.296;16.904;2022-10-17T15:07:11;177.77;;;169.52;;
57531;SDS011;43359;51.296;16.904;2022-10-17T15:09:37;185.70;;;177.27;;
57531;SDS011;43359;51.296;16.904;2022-10-17T15:12:05;183.40;;;176.20;;
57531;SDS011;43359;51.296;16.904;2022-10-17T15:14:32;243.10;;;231.60;;
57531;SDS011;43359;51.296;16.904;2022-10-17T15:16:59;230.75;;;219.88;;
57531;SDS011;43359;51.296;16.904;2022-10-17T15:19:25;228.27;;;218.32;;
57531;SDS011;43359;51.296;16.904;2022-10-17T15:21:51;224.90;;;215.90;;
57531;SDS011;43359;51.296;16.904;2022-10-17T15:24:17;223.57;;;214.07;;
57531;SDS011;43359;51.296;16.904;2022-10-17T15:26:43;229.00;;;219.10;;
57531;SDS011;43359;51.296;16.904;2022-10-17T15:29:12;226.75;;;216.85;;
57531;SDS011;43359;51.296;16.904;2022-10-17T15:31:39;226.23;;;216.70;;
57531;SDS011;43359;51.296;16.904;2022-10-17T15:34:06;230.57;;;219.27;;
57531;SDS011;43359;51.296;16.904;2022-10-17T15:36:33;240.55;;;229.85;;
57531;SDS011;43359;51.296;16.904;2022-10-17T15:39:01;242.35;;;231.13;;
57531;SDS011;43359;51.296;16.904;2022-10-17T15:41:28;230.23;;;219.43;;
57531;SDS011;43359;51.296;16.904;2022-10-17T15:43:55;238.25;;;227.20;;
57531;SDS011;43359;51.296;16.904;2022-10-17T15:46:25;252.38;;;240.27;;
57531;SDS011;43359;51.296;16.904;2022-10-17T15:48:52;239.88;;;228.25;;
57531;SDS011;43359;51.296;16.904;2022-10-17T15:51:18;235.10;;;225.07;;
57531;SDS011;43359;51.296;16.904;2022-10-17T15:53:45;240.60;;;230.52;;
57531;SDS011;43359;51.296;16.904;2022-10-17T15:56:17;243.60;;;232.20;;
57531;SDS011;43359;51.296;16.904;2022-10-17T15:58:44;242.73;;;231.45;;